createdAt,value
2023-03-29T00:00:08.171Z,3.35
2023-03-29T00:02:39.065Z,3.36
2023-03-29T00:05:06.854Z,3.45
2023-03-29T00:07:33.788Z,3.09
2023-03-29T00:10:01.629Z,3.05
2023-03-29T00:12:29.042Z,3.20
2023-03-29T00:14:56.083Z,2.99
2023-03-29T00:17:23.131Z,2.90
2023-03-29T00:19:50.072Z,2.98
2023-03-29T00:22:17.004Z,2.86
2023-03-29T00:24:43.884Z,2.80
2023-03-29T00:27:10.670Z,2.94
2023-03-29T00:29:37.828Z,2.89
2023-03-29T00:32:04.987Z,2.75
2023-03-29T00:34:31.936Z,2.84
2023-03-29T00:36:59.031Z,2.76
2023-03-29T00:39:28.113Z,2.64
2023-03-29T00:41:56.278Z,2.73
2023-03-29T00:45:00.687Z,2.72
2023-03-29T00:47:46.846Z,2.65
2023-03-29T00:50:16.484Z,2.77
2023-03-29T00:52:55.034Z,2.64
2023-03-29T00:55:24.043Z,2.62
2023-03-29T00:57:53.722Z,2.65
2023-03-29T01:00:24.984Z,2.62
2023-03-29T01:02:59.760Z,2.54
2023-03-29T01:05:33.333Z,2.76
2023-03-29T01:08:11.785Z,2.61
2023-03-29T01:10:47.359Z,2.61
2023-03-29T01:13:20.965Z,2.68
2023-03-29T01:15:48.302Z,2.54
2023-03-29T01:18:16.839Z,2.60
2023-03-29T01:20:51.008Z,2.73
2023-03-29T01:23:58.412Z,2.69
2023-03-29T01:26:55.602Z,2.70
2023-03-29T01:29:32.789Z,2.78
2023-03-29T01:32:14.530Z,2.48
2023-03-29T01:34:57.777Z,2.57
2023-03-29T01:37:32.495Z,2.48
2023-03-29T01:40:00.819Z,2.28
2023-03-29T01:42:46.718Z,2.30
2023-03-29T01:45:22.784Z,2.21
2023-03-29T01:48:07.959Z,2.18
2023-03-29T01:50:44.269Z,2.27
2023-03-29T01:53:36.479Z,2.18
2023-03-29T01:56:17.365Z,2.16
2023-03-29T01:58:48.777Z,2.27
2023-03-29T02:01:20.391Z,2.15
2023-03-29T02:03:50.908Z,2.16
2023-03-29T02:06:20.852Z,2.26
2023-03-29T02:08:48.786Z,2.19
2023-03-29T02:11:16.046Z,2.17
2023-03-29T02:13:43.129Z,2.20
2023-03-29T02:16:12.585Z,2.14
2023-03-29T02:18:43.323Z,2.09
2023-03-29T02:21:16.544Z,2.20
2023-03-29T02:23:46.748Z,2.05
2023-03-29T02:26:15.405Z,2.06
2023-03-29T02:28:43.090Z,2.19
2023-03-29T02:31:20.328Z,2.00
2023-03-29T02:34:04.788Z,1.97
2023-03-29T02:36:40.544Z,2.06
2023-03-29T02:39:10.274Z,1.92
2023-03-29T02:41:38.991Z,2.08
2023-03-29T02:44:08.325Z,2.14
2023-03-29T02:46:38.197Z,1.97
2023-03-29T02:49:05.409Z,1.93
2023-03-29T02:51:34.309Z,2.03
2023-03-29T02:54:10.049Z,1.85
2023-03-29T02:56:45.483Z,1.90
2023-03-29T02:59:12.870Z,1.94
2023-03-29T03:01:44.946Z,1.77
2023-03-29T03:04:13.401Z,1.80
2023-03-29T03:06:40.842Z,1.85
2023-03-29T03:09:10.701Z,1.54
2023-03-29T03:11:40.440Z,1.65
2023-03-29T03:14:08.526Z,1.55
2023-03-29T03:16:36.257Z,1.35
2023-03-29T03:21:49.769Z,1.39
2023-03-29T03:24:17.801Z,1.19
2023-03-29T03:26:46.401Z,1.30
2023-03-29T03:29:15.619Z,1.23
2023-03-29T03:32:02.542Z,1.16
2023-03-29T03:34:47.122Z,1.16
2023-03-29T03:37:15.571Z,1.03
2023-03-29T03:39:42.455Z,0.95
2023-03-29T03:42:10.563Z,1.00
2023-03-29T03:44:42.029Z,0.89
2023-03-29T03:47:37.789Z,0.87
2023-03-29T03:50:19.350Z,0.99
2023-03-29T03:52:46.628Z,0.85
2023-03-29T03:55:14.413Z,0.88
2023-03-29T03:57:48.035Z,0.90
2023-03-29T04:00:21.418Z,0.81
2023-03-29T04:03:07.332Z,0.82
2023-03-29T04:05:40.270Z,0.83
2023-03-29T04:08:08.489Z,0.85
2023-03-29T04:10:59.934Z,0.92
2023-03-29T04:13:34.444Z,0.82
2023-03-29T04:16:36.945Z,0.91
2023-03-29T04:19:21.828Z,0.86
2023-03-29T04:21:49.641Z,0.85
2023-03-29T04:24:17.354Z,0.97
2023-03-29T04:26:55.601Z,0.96
2023-03-29T04:29:24.370Z,1.00
2023-03-29T04:31:58.267Z,1.08
2023-03-29T04:34:44.231Z,1.11
2023-03-29T04:37:11.586Z,1.22
2023-03-29T04:39:44.962Z,1.21
2023-03-29T04:42:13.077Z,1.21
2023-03-29T04:44:43.811Z,1.32
2023-03-29T04:47:13.434Z,1.21
2023-03-29T04:49:51.827Z,1.51
2023-03-29T04:52:33.425Z,2.03
2023-03-29T04:55:02.591Z,1.70
2023-03-29T04:57:48.243Z,2.07
2023-03-29T05:00:21.307Z,2.39
2023-03-29T05:03:10.161Z,2.17
2023-03-29T05:05:41.665Z,2.64
2023-03-29T05:08:09.626Z,2.46
2023-03-29T05:10:54.846Z,2.24
2023-03-29T05:13:22.226Z,2.72
2023-03-29T05:15:49.188Z,2.98
2023-03-29T05:18:16.233Z,2.90
2023-03-29T05:20:43.146Z,3.57
2023-03-29T05:23:14.707Z,4.12
2023-03-29T05:26:00.415Z,3.36
2023-03-29T05:28:27.283Z,4.72
2023-03-29T05:31:02.354Z,5.56
2023-03-29T05:33:31.026Z,4.74
2023-03-29T05:36:04.256Z,4.78
2023-03-29T05:38:32.910Z,5.61
2023-03-29T05:41:01.474Z,4.26
2023-03-29T05:43:48.730Z,4.86
2023-03-29T05:46:16.562Z,5.04
2023-03-29T05:48:49.201Z,4.53
2023-03-29T05:51:19.006Z,4.24
2023-03-29T05:53:45.959Z,5.51
2023-03-29T05:56:16.092Z,6.32
2023-03-29T05:58:43.579Z,4.58
2023-03-29T06:01:14.842Z,4.29
2023-03-29T06:03:56.461Z,3.96
2023-03-29T06:06:29.572Z,2.71
2023-03-29T06:08:59.193Z,3.23
2023-03-29T06:11:35.063Z,4.19
2023-03-29T06:14:25.004Z,4.68
2023-03-29T06:17:05.491Z,5.70
2023-03-29T06:19:32.569Z,7.19
2023-03-29T06:21:59.366Z,7.35
2023-03-29T06:24:28.860Z,5.22
2023-03-29T06:27:02.158Z,6.68
2023-03-29T06:29:30.412Z,6.47
2023-03-29T06:31:57.396Z,5.53
2023-03-29T06:34:46.902Z,5.73
2023-03-29T06:37:32.720Z,8.02
2023-03-29T06:40:21.475Z,8.03
2023-03-29T06:42:49.180Z,6.73
2023-03-29T06:45:42.792Z,7.44
2023-03-29T06:48:19.688Z,8.88
2023-03-29T06:50:49.075Z,8.78
2023-03-29T06:53:17.271Z,7.49
2023-03-29T06:55:52.784Z,7.83
2023-03-29T06:58:38.016Z,9.30
2023-03-29T07:01:15.700Z,10.67
2023-03-29T07:03:49.436Z,11.32
2023-03-29T07:06:21.126Z,10.92
2023-03-29T07:08:50.655Z,10.47
2023-03-29T07:11:27.758Z,9.44
2023-03-29T07:13:57.507Z,10.76
2023-03-29T07:16:26.000Z,10.59
2023-03-29T07:19:19.820Z,12.58
2023-03-29T07:21:57.155Z,10.80
2023-03-29T07:40:24.212Z,5.80
2023-03-29T07:42:59.034Z,7.90
2023-03-29T07:45:30.183Z,7.85
2023-03-29T07:48:04.970Z,8.25
2023-03-29T07:51:08.053Z,10.05
2023-03-29T07:53:57.682Z,11.77
2023-03-29T07:56:44.849Z,7.83
2023-03-29T07:59:19.163Z,10.12
2023-03-29T08:01:53.958Z,12.34
2023-03-29T08:04:34.865Z,11.00
2023-03-29T08:07:21.653Z,10.08
2023-03-29T08:10:04.074Z,11.68
2023-03-29T08:12:47.541Z,10.54
2023-03-29T08:15:16.727Z,10.32
2023-03-29T08:17:44.063Z,12.10
2023-03-29T08:20:14.116Z,11.49
2023-03-29T08:22:43.565Z,10.33
2023-03-29T08:25:12.227Z,9.09
2023-03-29T08:27:44.932Z,9.98
2023-03-29T08:30:15.005Z,10.06
2023-03-29T08:32:42.261Z,8.32
2023-03-29T08:35:10.231Z,10.62
2023-03-29T08:37:43.554Z,10.38
2023-03-29T08:40:21.663Z,9.20
2023-03-29T08:43:18.459Z,7.05
2023-03-29T08:46:17.655Z,7.93
2023-03-29T08:48:52.771Z,7.66
2023-03-29T08:51:27.879Z,6.60
2023-03-29T08:54:16.946Z,7.55
2023-03-29T08:57:12.297Z,8.75
2023-03-29T08:59:44.514Z,10.58
2023-03-29T09:02:19.302Z,9.80
2023-03-29T09:04:52.548Z,11.35
2023-03-29T09:07:28.216Z,13.94
2023-03-29T09:09:56.235Z,14.13
2023-03-29T09:13:24.221Z,12.44
2023-03-29T09:16:14.990Z,13.92
2023-03-29T09:19:22.493Z,12.64
2023-03-29T09:22:14.988Z,8.80
2023-03-29T09:25:13.738Z,10.59
2023-03-29T09:27:47.447Z,10.56
2023-03-29T09:30:27.935Z,8.14
2023-03-29T09:33:06.039Z,8.74
2023-03-29T09:35:53.949Z,8.57
2023-03-29T09:38:22.408Z,8.08
2023-03-29T09:41:00.414Z,7.19
2023-03-29T09:43:47.526Z,7.63
2023-03-29T09:46:25.431Z,7.17
2023-03-29T09:48:55.449Z,6.25
2023-03-29T09:51:27.165Z,6.54
2023-03-29T09:53:57.180Z,6.42
2023-03-29T09:56:45.639Z,6.54
2023-03-29T09:59:16.039Z,8.08
2023-03-29T10:01:46.708Z,7.63
2023-03-29T10:04:16.972Z,7.58
2023-03-29T10:06:52.651Z,8.71
2023-03-29T10:09:22.779Z,10.46
2023-03-29T10:12:00.181Z,13.28
2023-03-29T10:14:30.117Z,13.15
2023-03-29T10:16:57.753Z,13.15
2023-03-29T10:19:34.541Z,12.63
2023-03-29T10:22:05.054Z,10.81
2023-03-29T10:24:31.977Z,10.89
2023-03-29T10:27:10.669Z,13.83
2023-03-29T10:29:41.277Z,11.14
2023-03-29T10:32:43.535Z,9.77
2023-03-29T10:35:24.165Z,8.12
2023-03-29T10:37:53.476Z,8.31
2023-03-29T10:40:30.932Z,9.14
2023-03-29T10:43:19.686Z,7.83
2023-03-29T10:45:52.842Z,7.96
2023-03-29T10:48:25.683Z,7.39
2023-03-29T10:50:53.279Z,6.49
2023-03-29T10:53:27.117Z,6.55
2023-03-29T10:56:13.846Z,11.14
2023-03-29T10:58:41.232Z,14.07
2023-03-29T11:01:18.494Z,13.98
2023-03-29T11:03:52.986Z,12.06
2023-03-29T11:06:33.120Z,10.75
2023-03-29T11:09:05.716Z,11.08
2023-03-29T11:11:41.191Z,10.82
2023-03-29T11:14:28.220Z,8.21
2023-03-29T11:16:57.756Z,7.18
2023-03-29T11:19:51.891Z,6.35
2023-03-29T11:22:44.696Z,5.50
2023-03-29T11:25:24.732Z,5.74
2023-03-29T11:28:10.905Z,6.30
2023-03-29T11:30:59.085Z,6.41
2023-03-29T11:33:56.369Z,7.31
2023-03-29T11:36:58.675Z,8.45
2023-03-29T11:39:43.607Z,8.31
2023-03-29T11:42:20.366Z,7.97
2023-03-29T11:44:54.643Z,8.23
2023-03-29T11:47:28.047Z,8.03
2023-03-29T11:50:10.584Z,8.34
2023-03-29T11:52:43.695Z,8.51
2023-03-29T11:55:19.630Z,8.46
2023-03-29T11:57:49.408Z,8.31
2023-03-29T12:00:22.223Z,8.50
2023-03-29T12:02:53.485Z,8.47
2023-03-29T12:05:24.462Z,7.94
2023-03-29T12:08:01.676Z,7.65
2023-03-29T12:10:43.174Z,7.87
2023-03-29T12:13:27.237Z,7.87
2023-03-29T12:16:08.986Z,7.67
2023-03-29T12:18:45.558Z,7.84
2023-03-29T12:21:22.303Z,8.22
2023-03-29T12:23:51.985Z,8.32
2023-03-29T12:26:57.886Z,8.09
2023-03-29T12:29:52.213Z,7.99
2023-03-29T12:32:38.608Z,8.44
2023-03-29T12:36:03.185Z,9.09
2023-03-29T12:39:18.861Z,8.89
2023-03-29T12:42:17.160Z,7.37
2023-03-29T12:45:00.736Z,6.99
2023-03-29T12:47:44.234Z,6.48
2023-03-29T12:50:33.992Z,6.45
2023-03-29T12:53:19.081Z,6.11
2023-03-29T12:55:55.984Z,5.75
2023-03-29T12:58:27.880Z,5.35
2023-03-29T13:01:24.359Z,4.43
2023-03-29T13:03:57.808Z,3.98
2023-03-29T13:06:31.073Z,3.60
2023-03-29T13:09:03.679Z,3.27
2023-03-29T13:11:37.736Z,2.96
2023-03-29T13:14:16.891Z,2.51
2023-03-29T13:16:44.085Z,2.17
2023-03-29T13:19:29.572Z,2.16
2023-03-29T13:22:42.468Z,2.54
2023-03-29T13:25:28.021Z,3.08
2023-03-29T13:28:25.807Z,3.10
2023-03-29T13:30:59.685Z,3.12
2023-03-29T13:33:49.872Z,3.11
2023-03-29T13:37:06.860Z,3.29
2023-03-29T13:39:40.450Z,3.28
2023-03-29T13:42:25.426Z,3.14
2023-03-29T13:44:53.935Z,3.22
2023-03-29T13:47:30.161Z,3.27
2023-03-29T13:50:05.418Z,3.40
2023-03-29T13:52:41.216Z,3.59
2023-03-29T13:55:13.924Z,3.63
2023-03-29T13:58:04.044Z,3.63
2023-03-29T14:00:47.293Z,3.70
2023-03-29T14:03:16.630Z,3.61
2023-03-29T14:05:57.216Z,3.70
2023-03-29T14:08:44.347Z,3.60
2023-03-29T14:11:24.669Z,3.69
2023-03-29T14:13:59.784Z,3.78
2023-03-29T14:16:33.275Z,3.80
2023-03-29T14:19:04.191Z,3.59
2023-03-29T14:21:31.208Z,3.46
2023-03-29T14:24:02.426Z,3.26
2023-03-29T14:26:34.749Z,3.19
2023-03-29T14:29:04.468Z,3.26
2023-03-29T14:31:37.942Z,3.43
2023-03-29T14:34:07.916Z,3.46
2023-03-29T14:36:36.629Z,3.35
2023-03-29T14:39:21.518Z,3.16
2023-03-29T14:41:51.215Z,3.19
2023-03-29T14:44:20.046Z,3.22
2023-03-29T14:46:49.710Z,3.56
2023-03-29T14:49:18.407Z,3.67
2023-03-29T14:51:47.280Z,3.70
2023-03-29T14:54:29.210Z,3.65
2023-03-29T14:56:56.330Z,3.69
2023-03-29T14:59:37.151Z,3.88
2023-03-29T15:02:04.865Z,3.67
2023-03-29T15:04:36.012Z,3.87
2023-03-29T15:07:05.095Z,3.96
2023-03-29T15:09:34.769Z,3.95
2023-03-29T15:12:03.502Z,3.77
2023-03-29T15:14:34.020Z,3.56
2023-03-29T15:17:16.869Z,3.57
2023-03-29T15:19:43.837Z,3.47
2023-03-29T15:22:11.494Z,3.49
2023-03-29T15:24:47.616Z,3.51
2023-03-29T15:27:19.726Z,3.51
2023-03-29T15:29:47.957Z,3.59
2023-03-29T15:32:22.920Z,3.40
2023-03-29T15:35:05.122Z,3.41
2023-03-29T15:37:32.552Z,3.32
2023-03-29T15:39:59.769Z,3.18
2023-03-29T15:42:26.719Z,3.23
2023-03-29T15:44:54.949Z,3.24
2023-03-29T15:47:22.235Z,3.34
2023-03-29T15:49:49.368Z,3.27
2023-03-29T15:52:16.821Z,3.21
2023-03-29T15:54:43.990Z,3.12
2023-03-29T15:57:15.074Z,3.05
2023-03-29T15:59:43.310Z,3.01
2023-03-29T16:02:16.106Z,2.89
2023-03-29T16:04:43.390Z,2.79
2023-03-29T16:07:14.402Z,2.71
2023-03-29T16:09:42.078Z,2.68
2023-03-29T16:12:10.312Z,2.73
2023-03-29T16:14:37.350Z,2.59
2023-03-29T16:17:04.767Z,2.65
2023-03-29T16:19:33.863Z,2.60
2023-03-29T16:22:03.494Z,2.53
2023-03-29T16:24:32.211Z,2.57
2023-03-29T16:27:00.044Z,2.67
2023-03-29T16:29:27.507Z,2.71
2023-03-29T16:31:55.026Z,2.85
2023-03-29T16:34:23.102Z,2.97
2023-03-29T16:36:50.847Z,3.01
2023-03-29T16:39:18.443Z,2.56
2023-03-29T16:41:48.531Z,2.31
2023-03-29T16:44:23.946Z,2.14
2023-03-29T16:46:53.975Z,1.85
2023-03-29T16:49:21.733Z,1.66
2023-03-29T16:51:48.847Z,1.55
2023-03-29T16:54:17.390Z,1.38
2023-03-29T16:56:44.558Z,1.31
2023-03-29T16:59:12.147Z,1.26
2023-03-29T17:01:40.858Z,1.15
2023-03-29T17:04:08.442Z,1.17
2023-03-29T17:06:36.104Z,1.08
2023-03-29T17:09:03.441Z,1.01
2023-03-29T17:11:30.507Z,0.86
2023-03-29T17:13:57.409Z,0.96
2023-03-29T17:16:24.427Z,1.00
2023-03-29T17:18:51.395Z,1.03
2023-03-29T17:21:18.283Z,1.02
2023-03-29T17:23:45.072Z,0.96
2023-03-29T17:26:12.066Z,0.91
2023-03-29T17:28:39.250Z,0.88
2023-03-29T17:31:08.018Z,0.93
2023-03-29T17:33:36.348Z,0.95
2023-03-29T17:36:05.077Z,0.96
2023-03-29T17:38:34.233Z,0.93
2023-03-29T17:41:02.837Z,0.79
2023-03-29T17:43:29.806Z,0.83
2023-03-29T17:45:56.807Z,0.93
2023-03-29T17:48:24.645Z,0.80
2023-03-29T17:50:52.063Z,0.73
2023-03-29T17:53:19.206Z,0.81
2023-03-29T17:55:46.195Z,0.92
2023-03-29T17:58:13.178Z,0.88
2023-03-29T18:00:40.124Z,0.96
2023-03-29T18:03:07.259Z,0.97
2023-03-29T18:05:35.704Z,0.97
2023-03-29T18:08:02.987Z,1.08
2023-03-29T18:10:29.882Z,1.09
2023-03-29T18:12:57.003Z,1.13
2023-03-29T18:15:23.960Z,1.16
2023-03-29T18:17:50.930Z,1.11
2023-03-29T18:20:17.990Z,1.16
2023-03-29T18:22:44.947Z,1.12
2023-03-29T18:25:11.918Z,1.15
2023-03-29T18:27:39.959Z,0.94
2023-03-29T18:30:08.904Z,0.99
2023-03-29T18:32:36.720Z,0.91
2023-03-29T18:35:05.029Z,0.85
2023-03-29T18:37:32.190Z,0.96
2023-03-29T18:39:59.091Z,0.81
2023-03-29T18:42:26.210Z,0.84
2023-03-29T18:44:53.047Z,0.91
2023-03-29T18:47:19.996Z,0.93
2023-03-29T18:49:47.289Z,0.90
2023-03-29T18:52:14.262Z,0.82
2023-03-29T18:54:41.735Z,0.87
2023-03-29T18:57:08.784Z,0.75
2023-03-29T18:59:38.664Z,0.72
2023-03-29T19:02:05.637Z,0.71
2023-03-29T19:04:32.578Z,0.68
2023-03-29T19:07:01.460Z,0.78
2023-03-29T19:09:28.349Z,0.69
2023-03-29T19:11:55.414Z,0.70
2023-03-29T19:14:25.172Z,0.61
2023-03-29T19:16:53.152Z,0.55
2023-03-29T19:19:21.454Z,0.63
2023-03-29T19:21:48.980Z,0.55
2023-03-29T19:24:16.537Z,0.60
2023-03-29T19:26:44.510Z,0.53
2023-03-29T19:41:53.633Z,0.07
2023-03-29T19:44:20.511Z,0.33
2023-03-29T19:46:47.424Z,0.34
2023-03-29T19:49:14.427Z,0.49
2023-03-29T19:51:42.416Z,0.59
2023-03-29T19:54:11.471Z,0.51
2023-03-29T19:56:38.645Z,0.56
2023-03-29T19:59:05.711Z,0.60
2023-03-29T20:01:32.774Z,0.62
2023-03-29T20:03:59.845Z,0.69
2023-03-29T20:06:27.052Z,0.59
2023-03-29T20:08:53.953Z,0.72
2023-03-29T20:11:24.135Z,0.71
2023-03-29T20:13:51.198Z,0.58
2023-03-29T20:16:19.550Z,0.67
2023-03-29T20:18:46.705Z,0.59
2023-03-29T20:21:16.819Z,0.62
2023-03-29T20:23:44.422Z,0.64
2023-03-29T20:26:12.193Z,0.57
2023-03-29T20:28:39.555Z,0.68
2023-03-29T20:31:10.605Z,0.68
2023-03-29T20:33:38.113Z,0.63
2023-03-29T20:36:06.651Z,0.69
2023-03-29T20:38:33.838Z,0.68
2023-03-29T20:41:01.026Z,0.59
2023-03-29T20:43:28.019Z,0.58
2023-03-29T20:45:55.507Z,0.49
2023-03-29T20:48:24.381Z,0.53
2023-03-29T20:50:51.939Z,0.51
2023-03-29T20:53:20.749Z,0.42
2023-03-29T20:55:48.093Z,0.47
2023-03-29T20:58:15.907Z,0.39
2023-03-29T21:00:43.928Z,0.37
2023-03-29T21:03:11.336Z,0.44
2023-03-29T21:05:39.017Z,0.27
2023-03-29T21:08:06.114Z,0.27
2023-03-29T21:10:33.098Z,0.25
2023-03-29T21:13:00.444Z,0.18
2023-03-29T21:15:30.523Z,0.16
2023-03-29T21:17:58.145Z,0.07
2023-03-29T21:20:25.700Z,0.09
2023-03-29T21:22:52.619Z,0.11
2023-03-29T21:25:19.841Z,-0.09
2023-03-29T21:27:46.859Z,-0.02
2023-03-29T21:30:14.036Z,-0.08
2023-03-29T21:32:41.377Z,-0.04
2023-03-29T21:35:09.252Z,0.04
2023-03-29T21:37:36.184Z,-0.07
2023-03-29T21:40:08.598Z,-0.07
2023-03-29T21:42:35.877Z,-0.13
2023-03-29T21:45:03.446Z,-0.25
2023-03-29T21:47:30.670Z,-0.16
2023-03-29T21:49:57.585Z,-0.25
2023-03-29T21:52:24.531Z,-0.25
2023-03-29T21:54:51.373Z,-0.18
2023-03-29T21:57:18.330Z,-0.26
2023-03-29T21:59:45.401Z,-0.20
2023-03-29T22:02:12.422Z,-0.17
2023-03-29T22:04:39.401Z,-0.26
2023-03-29T22:07:06.913Z,-0.18
2023-03-29T22:09:35.221Z,-0.25
2023-03-29T22:12:03.607Z,-0.29
2023-03-29T22:14:34.879Z,-0.21
2023-03-29T22:17:06.347Z,-0.34
2023-03-29T22:19:39.348Z,-0.30
2023-03-29T22:22:13.795Z,-0.16
2023-03-29T22:24:42.138Z,-0.21
2023-03-29T22:27:09.739Z,-0.19
2023-03-29T22:29:36.735Z,-0.10
2023-03-29T22:32:03.956Z,-0.14
2023-03-29T22:34:30.997Z,0.05
2023-03-29T22:36:57.785Z,0.02
2023-03-29T22:39:24.607Z,-0.03
2023-03-29T22:41:51.601Z,0.16
2023-03-29T22:44:18.460Z,-0.01
2023-03-29T22:46:45.642Z,-0.13
2023-03-29T22:49:12.738Z,-0.03
2023-03-29T22:51:39.618Z,-0.23
2023-03-29T22:54:06.502Z,-0.29
2023-03-29T22:56:33.398Z,-0.28
2023-03-29T22:59:00.285Z,-0.36
2023-03-29T23:01:27.282Z,-0.30
2023-03-29T23:03:54.235Z,-0.39
2023-03-29T23:06:21.201Z,-0.55
2023-03-29T23:08:48.099Z,-0.54
2023-03-29T23:11:14.982Z,-0.56
2023-03-29T23:13:41.975Z,-0.63
2023-03-29T23:16:08.871Z,-0.54
2023-03-29T23:18:37.619Z,-0.58
2023-03-29T23:21:05.954Z,-0.61
2023-03-29T23:23:33.709Z,-0.65
2023-03-29T23:29:05.505Z,-0.88
2023-03-29T23:31:33.847Z,-0.99
2023-03-29T23:34:00.846Z,-0.97
2023-03-29T23:36:31.183Z,-0.89
2023-03-29T23:38:59.734Z,-1.10
2023-03-29T23:41:30.780Z,-1.12
2023-03-29T23:43:57.961Z,-1.12
2023-03-29T23:46:25.337Z,-1.18
2023-03-29T23:49:02.431Z,-1.16
2023-03-29T23:51:30.624Z,-1.27
2023-03-29T23:53:57.606Z,-1.28
2023-03-29T23:56:24.529Z,-1.19
2023-03-29T23:58:51.837Z,-1.27
